Observation data for Post on 03/12/2018      Previous  Date  Next       Current Mesonet Observations  Soil Data  Daily Summary Page  Observations in Plain Language
KPT1 120500Z 34004KT 05/M16 A3035 RMK A01 T00491162  RH  020%=      5-min Rain = 0
KPT1 120505Z 35004KT 05/M16 A3035 RMK A01 T00491158  RH  021%=      5-min Rain = 0
KPT1 120510Z 35004KT 05/M15 A3035 RMK A01 T00511153  RH  022%=      5-min Rain = 0
KPT1 120515Z 00003KT 05/M15 A3035 RMK A01 T00531148  RH  022%=      5-min Rain = 0
KPT1 120520Z 35003KT 05/M15 A3036 RMK A01 T00531147  RH  022%=      5-min Rain = 0
KPT1 120525Z 33002KT 05/M15 A3036 RMK A01 T00531146  RH  023%=      5-min Rain = 0
KPT1 120530Z 33003KT 05/M14 A3036 RMK A01 T00531144  RH  023%=      5-min Rain = 0
KPT1 120535Z 34003KT 05/M14 A3036 RMK A01 T00531143  RH  023%=      5-min Rain = 0
KPT1 120540Z 34004KT 05/M14 A3036 RMK A01 T00531143  RH  023%=      5-min Rain = 0
KPT1 120545Z 35004KT 05/M14 A3036 RMK A01 T00501142  RH  024%=      5-min Rain = 0
KPT1 120550Z 35005KT 05/M14 A3036 RMK A01 T00501138  RH  025%=      5-min Rain = 0
KPT1 120555Z 36005KT 05/M14 A3036 RMK A01 T00521136  RH  025%=      5-min Rain = 0
KPT1 120600Z 00004KT 05/M14 A3036 RMK A01 T00531136  RH  025%=      5-min Rain = 0
KPT1 120605Z 36004KT 05/M13 A3036 RMK A01 T00531133  RH  025%=      5-min Rain = 0
KPT1 120610Z 35003KT 05/M13 A3035 RMK A01 T00511131  RH  026%=      5-min Rain = 0
KPT1 120615Z 36003KT 05/M13 A3035 RMK A01 T00501133  RH  026%=      5-min Rain = 0
KPT1 120620Z 36003KT 05/M13 A3035 RMK A01 T00511133  RH  025%=      5-min Rain = 0
KPT1 120625Z 36004KT 05/M13 A3035 RMK A01 T00511133  RH  025%=      5-min Rain = 0
KPT1 120630Z 00004KT 05/M13 A3035 RMK A01 T00491128  RH  027%=      5-min Rain = 0
KPT1 120635Z 36003KT 05/M13 A3035 RMK A01 T00481127  RH  027%=      5-min Rain = 0
KPT1 120640Z 34003KT 05/M13 A3035 RMK A01 T00471129  RH  027%=      5-min Rain = 0
KPT1 120645Z 35003KT 05/M12 A3036 RMK A01 T00481124  RH  028%=      5-min Rain = 0
KPT1 120650Z 33003KT 05/M12 A3036 RMK A01 T00471122  RH  028%=      5-min Rain = 0
KPT1 120655Z 33003KT 05/M12 A3036 RMK A01 T00461120  RH  029%=      5-min Rain = 0
KPT1 120700Z 34003KT 05/M12 A3036 RMK A01 T00471118  RH  030%=      5-min Rain = 0
KPT1 120705Z 35003KT 05/M12 A3036 RMK A01 T00491116  RH  030%=      5-min Rain = 0
KPT1 120710Z 35002KT 05/M11 A3036 RMK A01 T00501113  RH  030%=      5-min Rain = 0
KPT1 120715Z 32004KT 05/M11 A3036 RMK A01 T00491113  RH  030%=      5-min Rain = 0
KPT1 120720Z 32004KT 05/M11 A3036 RMK A01 T00471111  RH  031%=      5-min Rain = 0
KPT1 120725Z 32004KT 05/M11 A3036 RMK A01 T00481109  RH  031%=      5-min Rain = 0
KPT1 120730Z 33004KT 05/M11 A3036 RMK A01 T00471109  RH  032%=      5-min Rain = 0
KPT1 120735Z 35003KT 05/M11 A3036 RMK A01 T00461105  RH  033%=      5-min Rain = 0
KPT1 120740Z 34004KT 05/M10 A3036 RMK A01 T00481102  RH  033%=      5-min Rain = 0
KPT1 120745Z 35004KT 05/M10 A3036 RMK A01 T00461101  RH  034%=      5-min Rain = 0
KPT1 120750Z 35004KT 05/M10 A3036 RMK A01 T00461098  RH  035%=      5-min Rain = 0
KPT1 120755Z 34004KT 05/M10 A3036 RMK A01 T00451098  RH  035%=      5-min Rain = 0
KPT1 120800Z 33004KT 04/M10 A3036 RMK A01 T00411098  RH  036%=      5-min Rain = 0
KPT1 120805Z 33003KT 04/M10 A3036 RMK A01 T00391099  RH  036%=      5-min Rain = 0
KPT1 120810Z 32003KT 04/M10 A3036 RMK A01 T00421099  RH  036%=      5-min Rain = 0
KPT1 120815Z 32003KT 04/M10 A3036 RMK A01 T00441098  RH  035%=      5-min Rain = 0
KPT1 120820Z 34003KT 04/M10 A3036 RMK A01 T00431098  RH  036%=      5-min Rain = 0
KPT1 120825Z 35004KT 04/M10 A3035 RMK A01 T00401098  RH  036%=      5-min Rain = 0
KPT1 120830Z 34004KT 04/M10 A3035 RMK A01 T00361099  RH  037%=      5-min Rain = 0
KPT1 120835Z 34004KT 03/M10 A3035 RMK A01 T00331100  RH  038%=      5-min Rain = 0
KPT1 120840Z 34004KT 03/M10 A3035 RMK A01 T00321099  RH  038%=      5-min Rain = 0
KPT1 120845Z 33004KT 03/M10 A3035 RMK A01 T00301099  RH  038%=      5-min Rain = 0
KPT1 120850Z 34004KT 03/M10 A3035 RMK A01 T00301097  RH  039%=      5-min Rain = 0
KPT1 120855Z 34005KT 03/M09 A3035 RMK A01 T00331094  RH  039%=      5-min Rain = 0
KPT1 120900Z 34005KT 03/M09 A3035 RMK A01 T00331093  RH  040%=      5-min Rain = 0
KPT1 120905Z 35005KT 04/M09 A3035 RMK A01 T00351089  RH  040%=      5-min Rain = 0
KPT1 120910Z 35006KT 04/M08 A3034 RMK A01 T00431083  RH  040%=      5-min Rain = 0
KPT1 120915Z 35006KT 04/M09 A3034 RMK A01 T00441085  RH  039%=      5-min Rain = 0
KPT1 120920Z 34005KT 04/M08 A3034 RMK A01 T00401084  RH  040%=      5-min Rain = 0
KPT1 120925Z 34004KT 04/M08 A3034 RMK A01 T00371083  RH  042%=      5-min Rain = 0
KPT1 120930Z 33004KT 03/M09 A3035 RMK A01 T00331087  RH  042%=      5-min Rain = 0
KPT1 120935Z 32005KT 03/M09 A3035 RMK A01 T00311088  RH  042%=      5-min Rain = 0
KPT1 120940Z 32005KT 03/M09 A3035 RMK A01 T00271089  RH  043%=      5-min Rain = 0
KPT1 120945Z 31004KT 02/M09 A3035 RMK A01 T00221092  RH  043%=      5-min Rain = 0
KPT1 120950Z 32004KT 02/M09 A3035 RMK A01 T00221091  RH  043%=      5-min Rain = 0
KPT1 120955Z 33004KT 02/M09 A3035 RMK A01 T00231090  RH  044%=      5-min Rain = 0
KPT1 121000Z 34005KT 02/M09 A3035 RMK A01 T00231090  RH  044%=      5-min Rain = 0
KPT1 121005Z 34005KT 02/M09 A3035 RMK A01 T00221088  RH  044%=      5-min Rain = 0
KPT1 121010Z 34005KT 02/M09 A3035 RMK A01 T00221088  RH  045%=      5-min Rain = 0
KPT1 121015Z 34005KT 02/M09 A3035 RMK A01 T00201088  RH  045%=      5-min Rain = 0
KPT1 121020Z 34004KT 02/M09 A3035 RMK A01 T00181088  RH  046%=      5-min Rain = 0
KPT1 121025Z 33003KT 02/M09 A3035 RMK A01 T00171088  RH  046%=      5-min Rain = 0
KPT1 121030Z 33003KT 02/M09 A3035 RMK A01 T00211086  RH  046%=      5-min Rain = 0
KPT1 121035Z 33003KT 02/M09 A3035 RMK A01 T00221086  RH  045%=      5-min Rain = 0
KPT1 121040Z 34003KT 02/M09 A3035 RMK A01 T00201086  RH  046%=      5-min Rain = 0
KPT1 121045Z 35003KT 02/M09 A3036 RMK A01 T00191085  RH  046%=      5-min Rain = 0
KPT1 121050Z 35004KT 02/M08 A3036 RMK A01 T00201084  RH  046%=      5-min Rain = 0
KPT1 121055Z 34003KT 02/M08 A3036 RMK A01 T00191084  RH  047%=      5-min Rain = 0
KPT1 121100Z 35003KT 02/M08 A3036 RMK A01 T00201082  RH  047%=      5-min Rain = 0
KPT1 121105Z 35003KT 02/M08 A3036 RMK A01 T00211081  RH  047%=      5-min Rain = 0
KPT1 121110Z 34003KT 02/M08 A3036 RMK A01 T00211081  RH  048%=      5-min Rain = 0
KPT1 121115Z 32003KT 02/M08 A3036 RMK A01 T00201081  RH  048%=      5-min Rain = 0
KPT1 121120Z 32003KT 02/M08 A3036 RMK A01 T00211081  RH  048%=      5-min Rain = 0
KPT1 121125Z 35003KT 02/M08 A3036 RMK A01 T00211080  RH  047%=      5-min Rain = 0
KPT1 121130Z 35004KT 02/M08 A3036 RMK A01 T00211081  RH  047%=      5-min Rain = 0
KPT1 121135Z 36004KT 02/M08 A3036 RMK A01 T00201079  RH  048%=      5-min Rain = 0
KPT1 121140Z 00004KT 02/M08 A3036 RMK A01 T00221075  RH  049%=      5-min Rain = 0
KPT1 121145Z 35004KT 02/M08 A3037 RMK A01 T00231075  RH  049%=      5-min Rain = 0
KPT1 121150Z 32002KT 02/M08 A3037 RMK A01 T00211076  RH  049%=      5-min Rain = 0
KPT1 121155Z 32002KT 02/M08 A3037 RMK A01 T00221075  RH  049%=      5-min Rain = 0
KPT1 121200Z 32003KT 02/M08 A3037 RMK A01 T00231077  RH  048%=      5-min Rain = 0
KPT1 121205Z 31002KT 02/M08 A3037 RMK A01 T00231078  RH  048%=      5-min Rain = 0
KPT1 121210Z 32002KT 02/M08 A3037 RMK A01 T00231076  RH  048%=      5-min Rain = 0
KPT1 121215Z 33003KT 03/M08 A3038 RMK A01 T00261076  RH  048%=      5-min Rain = 0
KPT1 121220Z 34003KT 03/M08 A3038 RMK A01 T00261075  RH  048%=      5-min Rain = 0
KPT1 121225Z 35003KT 03/M08 A3038 RMK A01 T00251075  RH  048%=      5-min Rain = 0
KPT1 121230Z 01003KT 03/M07 A3038 RMK A01 T00251073  RH  049%=      5-min Rain = 0
KPT1 121235Z 02003KT 03/M07 A3038 RMK A01 T00261069  RH  050%=      5-min Rain = 0
KPT1 121240Z 01003KT 03/M07 A3038 RMK A01 T00281068  RH  050%=      5-min Rain = 0
KPT1 121245Z 01003KT 03/M07 A3038 RMK A01 T00281067  RH  050%=      5-min Rain = 0
KPT1 121250Z 36003KT 03/M07 A3038 RMK A01 T00271067  RH  050%=      5-min Rain = 0
KPT1 121255Z 36003KT 03/M07 A3038 RMK A01 T00261067  RH  051%=      5-min Rain = 0
KPT1 121300Z 35003KT 03/M07 A3038 RMK A01 T00261066  RH  051%=      5-min Rain = 0
KPT1 121305Z 34002KT 03/M06 A3038 RMK A01 T00261064  RH  052%=      5-min Rain = 0
KPT1 121310Z 34002KT 03/M06 A3038 RMK A01 T00271063  RH  052%=      5-min Rain = 0
KPT1 121315Z 34002KT 03/M06 A3039 RMK A01 T00261064  RH  052%=      5-min Rain = 0
KPT1 121320Z 33002KT 03/M07 A3039 RMK A01 T00251065  RH  052%=      5-min Rain = 0
KPT1 121325Z 32003KT 03/M07 A3039 RMK A01 T00251066  RH  052%=      5-min Rain = 0
KPT1 121330Z 32003KT 03/M07 A304 RMK A01 T00271065  RH  051%=      5-min Rain = 0
KPT1 121335Z 32003KT 03/M06 A304 RMK A01 T00331063  RH  050%=      5-min Rain = 0
KPT1 121340Z 33002KT 04/M06 A304 RMK A01 T00401060  RH  049%=      5-min Rain = 0
KPT1 121345Z 35003KT 05/M06 A304 RMK A01 T00461057  RH  048%=      5-min Rain = 0
KPT1 121350Z 01004KT 05/M06 A304 RMK A01 T00481058  RH  047%=      5-min Rain = 0
KPT1 121355Z 03003KT 05/M06 A304 RMK A01 T00471059  RH  047%=      5-min Rain = 0
KPT1 121400Z 04004KT 05/M06 A3039 RMK A01 T00471057  RH  047%=      5-min Rain = 0
KPT1 121405Z 04004KT 05/M06 A3039 RMK A01 T00481056  RH  047%=      5-min Rain = 0
KPT1 121410Z 04004KT 05/M06 A3039 RMK A01 T00491057  RH  047%=      5-min Rain = 0
KPT1 121415Z 04004KT 05/M06 A304 RMK A01 T00501058  RH  046%=      5-min Rain = 0
KPT1 121420Z 04004KT 05/M06 A304 RMK A01 T00511058  RH  046%=      5-min Rain = 0
KPT1 121425Z 05005KT 05/M06 A304 RMK A01 T00521055  RH  046%=      5-min Rain = 0
KPT1 121430Z 05005KT 05/M05 A304 RMK A01 T00531052  RH  047%=      5-min Rain = 0
KPT1 121435Z 05004KT 05/M05 A304 RMK A01 T00541052  RH  047%=      5-min Rain = 0
KPT1 121440Z 05004KT 05/M05 A304 RMK A01 T00541050  RH  047%=      5-min Rain = 0
KPT1 121445Z 05005KT 05/M05 A304 RMK A01 T00541050  RH  047%=      5-min Rain = 0
KPT1 121450Z 05004KT 06/M05 A304 RMK A01 T00561050  RH  047%=      5-min Rain = 0
KPT1 121455Z 06004KT 06/M05 A304 RMK A01 T00561050  RH  047%=      5-min Rain = 0
KPT1 121500Z 04003KT 06/M05 A304 RMK A01 T00571050  RH  047%=      5-min Rain = 0
KPT1 121505Z 03003KT 06/M05 A304 RMK A01 T00581048  RH  047%=      5-min Rain = 0
KPT1 121510Z 06002KT 06/M05 A304 RMK A01 T00601046  RH  047%=      5-min Rain = 0
KPT1 121515Z 07003KT 06/M05 A304 RMK A01 T00601045  RH  047%=      5-min Rain = 0
KPT1 121520Z 06003KT 06/M05 A304 RMK A01 T00631045  RH  046%=      5-min Rain = 0
KPT1 121525Z 05004KT 06/M05 A304 RMK A01 T00621046  RH  046%=      5-min Rain = 0
KPT1 121530Z 06003KT 06/M05 A304 RMK A01 T00621045  RH  047%=      5-min Rain = 0
KPT1 121535Z 05003KT 06/M05 A3041 RMK A01 T00621045  RH  047%=      5-min Rain = 0
KPT1 121540Z 07003KT 06/M05 A3041 RMK A01 T00621045  RH  047%=      5-min Rain = 0
KPT1 121545Z 09002KT 06/M04 A3041 RMK A01 T00621044  RH  047%=      5-min Rain = 0
KPT1 121550Z 08003KT 07/M04 A3041 RMK A01 T00651044  RH  046%=      5-min Rain = 0
KPT1 121555Z 08003KT 07/M04 A3041 RMK A01 T00651044  RH  046%=      5-min Rain = 0
KPT1 121600Z 07002KT 06/M05 A3042 RMK A01 T00631045  RH  047%=      5-min Rain = 0
KPT1 121605Z 02002KT 06/M04 A3042 RMK A01 T00641044  RH  046%=      5-min Rain = 0
KPT1 121610Z 04001KT 07/M04 A3042 RMK A01 T00671044  RH  045%=      5-min Rain = 0
KPT1 121615Z 08002KT 07/M04 A3042 RMK A01 T00681044  RH  045%=      5-min Rain = 0
KPT1 121620Z 03003KT 07/M05 A3042 RMK A01 T00691045  RH  045%=      5-min Rain = 0
KPT1 121625Z 04003KT 07/M05 A3042 RMK A01 T00661045  RH  045%=      5-min Rain = 0
KPT1 121630Z 02003KT 07/M04 A3042 RMK A01 T00691044  RH  045%=      5-min Rain = 0
KPT1 121635Z 02003KT 07/M04 A3042 RMK A01 T00731044  RH  044%=      5-min Rain = 0
KPT1 121640Z 02001KT 07/M04 A3042 RMK A01 T00721044  RH  044%=      5-min Rain = 0
KPT1 121645Z 07002KT 08/M04 A3041 RMK A01 T00751044  RH  043%=      5-min Rain = 0
KPT1 121650Z 09002KT 07/M05 A3041 RMK A01 T00721045  RH  044%=      5-min Rain = 0
KPT1 121655Z 07002KT 08/M05 A3041 RMK A01 T00751045  RH  043%=      5-min Rain = 0
KPT1 121700Z 03002KT 08/M05 A3041 RMK A01 T00771045  RH  042%=      5-min Rain = 0
KPT1 121705Z 07002KT 08/M05 A3041 RMK A01 T00771045  RH  042%=      5-min Rain = 0
KPT1 121710Z 06001KT 08/M05 A3041 RMK A01 T00751046  RH  043%=      5-min Rain = 0
KPT1 121715Z 10002KT 08/M05 A304 RMK A01 T00811045  RH  041%=      5-min Rain = 0
KPT1 121720Z 11003KT 09/M04 A304 RMK A01 T00861044  RH  040%=      5-min Rain = 0
KPT1 121725Z 16003KT 09/M05 A304 RMK A01 T00931045  RH  038%=      5-min Rain = 0
KPT1 121730Z 11003KT 09/M05 A304 RMK A01 T00931045  RH  038%=      5-min Rain = 0
KPT1 121735Z 09004KT 10/M05 A304 RMK A01 T00961045  RH  037%=      5-min Rain = 0
KPT1 121740Z 08004KT 10/M05 A304 RMK A01 T00961045  RH  037%=      5-min Rain = 0
KPT1 121745Z 07003KT 10/M05 A304 RMK A01 T00971047  RH  036%=      5-min Rain = 0
KPT1 121750Z 12002G7KT 10/M05 A304 RMK A01 T00981046  RH  036%=      5-min Rain = 0
KPT1 121755Z 10005KT 10/M05 A3039 RMK A01 T01021045  RH  035%=      5-min Rain = 0
KPT1 121800Z 09005KT 11/M05 A3039 RMK A01 T01091046  RH  034%=      5-min Rain = 0
KPT1 121805Z 15005KT 11/M05 A3038 RMK A01 T01051048  RH  034%=      5-min Rain = 0
KPT1 121810Z 17002KT 10/M05 A3038 RMK A01 T01031048  RH  035%=      5-min Rain = 0
KPT1 121815Z 10006KT 11/M05 A3037 RMK A01 T01081047  RH  034%=      5-min Rain = 0
KPT1 121820Z 06002KT 11/M05 A3037 RMK A01 T01061048  RH  034%=      5-min Rain = 0
KPT1 121825Z 14004KT 11/M05 A3037 RMK A01 T01071048  RH  034%=      5-min Rain = 0
KPT1 121830Z 18002KT 11/M05 A3037 RMK A01 T01051050  RH  034%=      5-min Rain = 0
KPT1 121835Z 18005KT 11/M05 A3036 RMK A01 T01091049  RH  033%=      5-min Rain = 0
KPT1 121840Z 17004KT 11/M05 A3036 RMK A01 T01111050  RH  032%=      5-min Rain = 0
KPT1 121845Z 18002KT 11/M05 A3036 RMK A01 T01111050  RH  032%=      5-min Rain = 0
KPT1 121850Z 13005KT 12/M05 A3035 RMK A01 T01171051  RH  031%=      5-min Rain = 0
KPT1 121855Z 15003KT 12/M05 A3035 RMK A01 T01161052  RH  031%=      5-min Rain = 0
KPT1 121900Z 21002KT 11/M05 A3035 RMK A01 T01141051  RH  031%=      5-min Rain = 0
KPT1 121905Z 13003KT 12/M05 A3035 RMK A01 T01161050  RH  031%=      5-min Rain = 0
KPT1 121910Z 14003KT 13/M05 A3034 RMK A01 T01251053  RH  029%=      5-min Rain = 0
KPT1 121915Z 17005KT 13/M05 A3034 RMK A01 T01261053  RH  029%=      5-min Rain = 0
KPT1 121920Z 18004KT 12/M06 A3034 RMK A01 T01221055  RH  029%=      5-min Rain = 0
KPT1 121925Z 21002KT 12/M06 A3033 RMK A01 T01221056  RH  029%=      5-min Rain = 0
KPT1 121930Z 18005KT 12/M06 A3033 RMK A01 T01241058  RH  028%=      5-min Rain = 0
KPT1 121935Z 21004KT 12/M06 A3033 RMK A01 T01231064  RH  027%=      5-min Rain = 0
KPT1 121940Z 21004KT 13/M06 A3033 RMK A01 T01261062  RH  027%=      5-min Rain = 0
KPT1 121945Z 24003KT 13/M07 A3032 RMK A01 T01261066  RH  026%=      5-min Rain = 0
KPT1 121950Z 21003G8KT 13/M07 A3032 RMK A01 T01321065  RH  025%=      5-min Rain = 0
KPT1 121955Z 23004KT 13/M06 A3032 RMK A01 T01301063  RH  026%=      5-min Rain = 0
KPT1 122000Z 24004KT 13/M06 A3032 RMK A01 T01321062  RH  026%=      5-min Rain = 0
KPT1 122005Z 22002KT 13/M06 A3031 RMK A01 T01331062  RH  025%=      5-min Rain = 0
KPT1 122010Z 22003KT 13/M07 A3031 RMK A01 T01321066  RH  025%=      5-min Rain = 0
KPT1 122015Z 25004KT 13/M06 A3031 RMK A01 T01321064  RH  025%=      5-min Rain = 0
KPT1 122020Z 25004KT 13/M06 A303 RMK A01 T01341063  RH  025%=      5-min Rain = 0
KPT1 122025Z 18002KT 14/M07 A303 RMK A01 T01391065  RH  024%=      5-min Rain = 0
KPT1 122030Z 17004KT 14/M07 A303 RMK A01 T01411068  RH  023%=      5-min Rain = 0
KPT1 122035Z 23003KT 14/M07 A3029 RMK A01 T01431070  RH  023%=      5-min Rain = 0
KPT1 122040Z 25002KT 14/M07 A3029 RMK A01 T01411068  RH  023%=      5-min Rain = 0
KPT1 122045Z 16003KT 14/M07 A3029 RMK A01 T01431068  RH  023%=      5-min Rain = 0
KPT1 122050Z 16004KT 15/M07 A3028 RMK A01 T01461069  RH  022%=      5-min Rain = 0
KPT1 122055Z 18004KT 14/M07 A3028 RMK A01 T01431069  RH  023%=      5-min Rain = 0
KPT1 122100Z 19004KT 15/M07 A3028 RMK A01 T01451069  RH  022%=      5-min Rain = 0
KPT1 122105Z 22005KT 15/M07 A3027 RMK A01 T01481070  RH  022%=      5-min Rain = 0
KPT1 122110Z 22005KT 15/M08 A3027 RMK A01 T01451076  RH  021%=      5-min Rain = 0
KPT1 122115Z 23002KT 14/M08 A3027 RMK A01 T01441081  RH  021%=      5-min Rain = 0
KPT1 122120Z 19004KT 15/M08 A3027 RMK A01 T01471079  RH  020%=      5-min Rain = 0
KPT1 122125Z 22003KT 15/M09 A3026 RMK A01 T01471086  RH  019%=      5-min Rain = 0
KPT1 122130Z 18004KT 15/M08 A3026 RMK A01 T01461082  RH  020%=      5-min Rain = 0
KPT1 122135Z 22002KT 15/M09 A3026 RMK A01 T01471086  RH  019%=      5-min Rain = 0
KPT1 122140Z 24002KT 15/M09 A3026 RMK A01 T01461088  RH  019%=      5-min Rain = 0
KPT1 122145Z 29002KT 15/M09 A3025 RMK A01 T01501094  RH  018%=      5-min Rain = 0
KPT1 122150Z 32001KT 15/M10 A3025 RMK A01 T01501098  RH  017%=      5-min Rain = 0
KPT1 122155Z 12003KT 15/M09 A3025 RMK A01 T01511086  RH  019%=      5-min Rain = 0
KPT1 122200Z 09002KT 15/M08 A3024 RMK A01 T01491078  RH  020%=      5-min Rain = 0
KPT1 122205Z 08004G10KT 15/M08 A3024 RMK A01 T01511079  RH  020%=      5-min Rain = 0
KPT1 122210Z 04003KT 15/M08 A3024 RMK A01 T01471079  RH  020%=      5-min Rain = 0
KPT1 122215Z 06003KT 15/M08 A3024 RMK A01 T01511079  RH  020%=      5-min Rain = 0
KPT1 122220Z 13004KT 15/M08 A3023 RMK A01 T01521082  RH  019%=      5-min Rain = 0
KPT1 122225Z 15005KT 15/M08 A3023 RMK A01 T01521083  RH  019%=      5-min Rain = 0
KPT1 122230Z 18006KT 16/M08 A3023 RMK A01 T01581083  RH  019%=      5-min Rain = 0
KPT1 122235Z 17005KT 15/M08 A3023 RMK A01 T01521084  RH  019%=      5-min Rain = 0
KPT1 122240Z 15004G9KT 15/M09 A3023 RMK A01 T01541085  RH  019%=      5-min Rain = 0
KPT1 122245Z 13004KT 15/M09 A3022 RMK A01 T01531086  RH  019%=      5-min Rain = 0
KPT1 122250Z 11004KT 15/M09 A3022 RMK A01 T01541086  RH  019%=      5-min Rain = 0
KPT1 122255Z 11004KT 15/M09 A3022 RMK A01 T01491088  RH  019%=      5-min Rain = 0
KPT1 122300Z 06002KT 15/M09 A3022 RMK A01 T01501089  RH  019%=      5-min Rain = 0
KPT1 122305Z 07003G9KT 15/M09 A3022 RMK A01 T01511089  RH  018%=      5-min Rain = 0
KPT1 122310Z 09006KT 15/M09 A3021 RMK A01 T01501092  RH  018%=      5-min Rain = 0
KPT1 122315Z 10007G12KT 15/M09 A3021 RMK A01 T01511092  RH  018%=      5-min Rain = 0
KPT1 122320Z 11005KT 15/M09 A3021 RMK A01 T01491093  RH  018%=      5-min Rain = 0
KPT1 122325Z 08004KT 15/M09 A3021 RMK A01 T01461094  RH  018%=      5-min Rain = 0
KPT1 122330Z 07005KT 15/M10 A3021 RMK A01 T01451095  RH  018%=      5-min Rain = 0
KPT1 122335Z 06004KT 15/M10 A3021 RMK A01 T01461095  RH  018%=      5-min Rain = 0
KPT1 122340Z 11005KT 15/M10 A3021 RMK A01 T01461097  RH  018%=      5-min Rain = 0
KPT1 122345Z 11004KT 15/M10 A3021 RMK A01 T01471099  RH  018%=      5-min Rain = 0
KPT1 122350Z 09003KT 15/M10 A3021 RMK A01 T01471101  RH  017%=      5-min Rain = 0
KPT1 122355Z 13006KT 15/M10 A3021 RMK A01 T01471101  RH  017%=      5-min Rain = 0
KPT1 130000Z 12004KT 14/M10 A3021 RMK A01 T01441102  RH  017%=      5-min Rain = 0
KPT1 130005Z 14004KT 14/M10 A3021 RMK A01 T01441102  RH  017%=      5-min Rain = 0
KPT1 130010Z 15004KT 14/M10 A3021 RMK A01 T01441099  RH  018%=      5-min Rain = 0
KPT1 130015Z 13003KT 14/M10 A3021 RMK A01 T01431097  RH  018%=      5-min Rain = 0
KPT1 130020Z 14004KT 14/M10 A3021 RMK A01 T01411095  RH  019%=      5-min Rain = 0
KPT1 130025Z 13005KT 14/M09 A3021 RMK A01 T01391093  RH  019%=      5-min Rain = 0
KPT1 130030Z 12005KT 14/M09 A3021 RMK A01 T01361093  RH  020%=      5-min Rain = 0
KPT1 130035Z 11005KT 13/M10 A3021 RMK A01 T01321095  RH  020%=      5-min Rain = 0
KPT1 130040Z 11005KT 13/M09 A3021 RMK A01 T01291094  RH  020%=      5-min Rain = 0
KPT1 130045Z 12005KT 13/M10 A3022 RMK A01 T01261095  RH  021%=      5-min Rain = 0
KPT1 130050Z 12005KT 12/M10 A3022 RMK A01 T01231096  RH  021%=      5-min Rain = 0
KPT1 130055Z 12005KT 12/M10 A3022 RMK A01 T01211096  RH  021%=      5-min Rain = 0
KPT1 130100Z 11005KT 12/M10 A3022 RMK A01 T01191095  RH  022%=      5-min Rain = 0
KPT1 130105Z 11005KT 12/M09 A3022 RMK A01 T01181094  RH  022%=      5-min Rain = 0
KPT1 130110Z 11005KT 12/M09 A3022 RMK A01 T01151093  RH  022%=      5-min Rain = 0
KPT1 130115Z 11005KT 12/M09 A3022 RMK A01 T01151093  RH  023%=      5-min Rain = 0
KPT1 130120Z 10005KT 11/M09 A3022 RMK A01 T01121093  RH  023%=      5-min Rain = 0
KPT1 130125Z 11005KT 11/M09 A3022 RMK A01 T01111092  RH  023%=      5-min Rain = 0
KPT1 130130Z 11005KT 11/M09 A3022 RMK A01 T01121091  RH  023%=      5-min Rain = 0
KPT1 130135Z 11005KT 11/M09 A3022 RMK A01 T01121090  RH  024%=      5-min Rain = 0
KPT1 130140Z 11005KT 11/M09 A3023 RMK A01 T01111091  RH  024%=      5-min Rain = 0
KPT1 130145Z 12005KT 11/M09 A3023 RMK A01 T01101092  RH  024%=      5-min Rain = 0
KPT1 130150Z 12005KT 11/M09 A3023 RMK A01 T01081093  RH  024%=      5-min Rain = 0
KPT1 130155Z 12005KT 11/M09 A3023 RMK A01 T01081091  RH  024%=      5-min Rain = 0
KPT1 130200Z 12005KT 11/M09 A3023 RMK A01 T01091091  RH  024%=      5-min Rain = 0
KPT1 130205Z 12005KT 11/M09 A3023 RMK A01 T01071091  RH  024%=      5-min Rain = 0
KPT1 130210Z 12005KT 11/M09 A3023 RMK A01 T01061090  RH  025%=      5-min Rain = 0
KPT1 130215Z 13005KT 11/M09 A3024 RMK A01 T01051090  RH  025%=      5-min Rain = 0
KPT1 130220Z 13004KT 11/M09 A3024 RMK A01 T01051089  RH  025%=      5-min Rain = 0
KPT1 130225Z 14004KT 11/M09 A3024 RMK A01 T01051088  RH  025%=      5-min Rain = 0
KPT1 130230Z 15004KT 10/M09 A3024 RMK A01 T01021088  RH  026%=      5-min Rain = 0
KPT1 130235Z 15004KT 10/M08 A3024 RMK A01 T01021084  RH  026%=      5-min Rain = 0
KPT1 130240Z 15003KT 10/M08 A3024 RMK A01 T01021083  RH  027%=      5-min Rain = 0
KPT1 130245Z 15003KT 10/M08 A3024 RMK A01 T01021083  RH  027%=      5-min Rain = 0
KPT1 130250Z 15004KT 10/M08 A3024 RMK A01 T01021083  RH  027%=      5-min Rain = 0
KPT1 130255Z 15004KT 10/M08 A3024 RMK A01 T01001083  RH  027%=      5-min Rain = 0
KPT1 130300Z 15004KT 10/M08 A3024 RMK A01 T00971083  RH  028%=      5-min Rain = 0
KPT1 130305Z 15004KT 10/M08 A3025 RMK A01 T00961083  RH  028%=      5-min Rain = 0
KPT1 130310Z 16004KT 10/M08 A3025 RMK A01 T00951083  RH  028%=      5-min Rain = 0
KPT1 130315Z 15004KT 10/M08 A3025 RMK A01 T00951082  RH  028%=      5-min Rain = 0
KPT1 130320Z 15004KT 09/M08 A3025 RMK A01 T00941082  RH  028%=      5-min Rain = 0
KPT1 130325Z 16004KT 09/M08 A3025 RMK A01 T00901082  RH  029%=      5-min Rain = 0
KPT1 130330Z 16003KT 09/M08 A3025 RMK A01 T00901081  RH  029%=      5-min Rain = 0
KPT1 130335Z 16003KT 09/M08 A3025 RMK A01 T00901081  RH  029%=      5-min Rain = 0
KPT1 130340Z 16003KT 09/M08 A3025 RMK A01 T00901081  RH  029%=      5-min Rain = 0
KPT1 130345Z 16003KT 09/M08 A3025 RMK A01 T00891081  RH  030%=      5-min Rain = 0
KPT1 130350Z 17003KT 09/M08 A3024 RMK A01 T00881081  RH  030%=      5-min Rain = 0
KPT1 130355Z 17004KT 09/M08 A3024 RMK A01 T00871081  RH  030%=      5-min Rain = 0
KPT1 130400Z 17004KT 09/M08 A3024 RMK A01 T00881081  RH  030%=      5-min Rain = 0
KPT1 130405Z 17003KT 09/M08 A3024 RMK A01 T00881081  RH  030%=      5-min Rain = 0
KPT1 130410Z 19002KT 09/M08 A3024 RMK A01 T00891081  RH  030%=      5-min Rain = 0
KPT1 130415Z 20002KT 09/M08 A3024 RMK A01 T00901081  RH  029%=      5-min Rain = 0
KPT1 130420Z 20001KT 09/M08 A3024 RMK A01 T00881082  RH  030%=      5-min Rain = 0
KPT1 130425Z 19002KT 09/M08 A3024 RMK A01 T00871083  RH  030%=      5-min Rain = 0
KPT1 130430Z 18003KT 08/M09 A3024 RMK A01 T00791085  RH  031%=      5-min Rain = 0
KPT1 130435Z 16003KT 08/M08 A3025 RMK A01 T00781084  RH  031%=      5-min Rain = 0
KPT1 130440Z 15004KT 08/M08 A3025 RMK A01 T00821081  RH  031%=      5-min Rain = 0
KPT1 130445Z 14004KT 08/M08 A3025 RMK A01 T00801082  RH  031%=      5-min Rain = 0
KPT1 130450Z 14004KT 08/M08 A3025 RMK A01 T00751081  RH  032%=      5-min Rain = 0
KPT1 130455Z 14004KT 07/M08 A3025 RMK A01 T00741082  RH  032%=      5-min Rain = 0

Page generated in 0.0405 seconds.